Aérodrome :
LOGIN :

S'inscrire | Disclaimer

   EN    FR    IT 

 










Légende :    VFR   VFR Marginal   IFR   IFR Intensif   IFR Très Intensif
Visi : 
Plafond : 
>= 8 km
>= 3000ft
5 à 8 km
1000 à 3000 ft
1500m à 5 km
500 à 1000 ft
800 à 1500m
200 à 500 ft
< 800m
< 200 ft
Symboles :   Orages  Brouillard  Fortes neiges  Fortes précipitations  Vent > 20 kt
SIGMETs :   Divers  Orages  Givrage  Turbulence  Onde Orograph.  Cendres Volcan.






- Altitude de l'aérodrome : 144 ft
- Code IATA : PGF


LFMP - Perpignan

DERNIER METAR :
  • 261930Z AUTO 11013KT 9999 SCT011 BKN031 BKN066 15/13 Q1018 TEMPO 2000 -RA BR OVC003 BECMG VRB03KT

METARs EXPIRÉS :
  • 261900Z AUTO 12011KT 9999 SCT010 BKN031 BKN170 15/13 Q1018 TEMPO 2000 -RA BR BKN008 SCT030TCU
  • 261830Z AUTO 11010KT 9999 FEW012 BKN035 BKN110 15/13 Q1018 TEMPO 2000 -RA BR BKN008 SCT030TCU
  • 261800Z AUTO 12010KT 9999 FEW012 BKN041 BKN072 15/13 Q1018 TEMPO BKN008 SCT030TCU
  • 261730Z AUTO 11011KT 9999 FEW012 SCT036 BKN058 15/13 Q1018 TEMPO BKN008 SCT030TCU
  • 261700Z AUTO 11011KT 080V150 9999 FEW011 SCT056 BKN068 15/13 Q1018 TEMPO BKN008 SCT030TCU

TAF TAF LFMP
Valide du 26 à 15h jusqu'au 27 à 15h UTC


261400Z 2615/2715 12013KT 9999 BKN020 OVC050
PROB30
TEMPO 2615/2620 -RADZ BKN008 SCT030TCU
BECMG 2620/2622 VRB03KT BKN012
TEMPO 2620/2709 2000 -RA BR OVC003
BECMG 2709/2711 12010KT
ATIS : +33 4 68 63 75 12



MET'MAP, la Météo Aéronautique d'un coup d'oeil ! - Copyright ORBIFLY Décembre 2007 - Disclaimer

ORBIFLY MET'MAP TEAM :

Programmation & Développement : Alexandra Zaïnal
Sur une idée originale de : Baudouin d'Aumeries
Assistance à la programmation : Marc-Olivier Méhu
Soutien technique & logistique : Manuel Goepfert

Contact : metmap@orbifly.com




SOURCES & CREDITS :

   NOAA